Time;durP1;ratioP1;P1;durP2;ratioP2;P2;SDS_P1;SDS_P2;PMS_P1;PMS_P2;Temp;Humidity;BMP_temperature;BMP_pressure;BME280_temperature;BME280_humidity;BME280_pressure;Samples;Min_cycle;Max_cycle;Signal;HPM_P1;HPM_P2
2022/05/15 00:02:07;;;;;;;4.10;2.50;;;12.80;99.90;;;;;;5005480;28;20194;-80
2022/05/15 00:04:33;;;;;;;7.35;3.17;;;12.70;99.90;;;;;;5002890;28;20214;-81
2022/05/15 00:06:58;;;;;;;2.90;2.20;;;12.50;99.90;;;;;;5004088;28;20179;-82
2022/05/15 00:09:24;;;;;;;9.07;2.70;;;12.40;99.90;;;;;;5002430;28;20195;-83
2022/05/15 00:11:49;;;;;;;3.60;2.07;;;12.50;99.90;;;;;;4990685;28;20179;-83
2022/05/15 00:14:15;;;;;;;4.80;2.10;;;12.50;99.90;;;;;;5006305;28;20190;-84
2022/05/15 00:16:41;;;;;;;2.10;1.67;;;13.50;99.90;;;;;;5003116;28;20280;-85
2022/05/15 00:19:07;;;;;;;3.07;2.20;;;12.40;99.90;;;;;;4992389;28;22081;-86
2022/05/15 00:21:33;;;;;;;3.20;2.17;;;12.30;99.90;;;;;;5006092;28;20245;-88
2022/05/15 00:24:01;;;;;;;3.78;2.60;;;12.20;99.90;;;;;;5008396;28;20274;-87
2022/05/15 00:26:27;;;;;;;5.05;2.05;;;12.30;99.90;;;;;;4992362;28;20187;-83
2022/05/15 00:28:53;;;;;;;3.07;1.70;;;;;;;;;;4991249;28;20733;-86
2022/05/15 00:31:19;;;;;;;4.80;1.95;;;12.20;99.90;;;;;;5007195;28;20273;-86
2022/05/15 00:33:46;;;;;;;3.30;2.87;;;12.30;99.90;;;;;;4990615;28;20731;-86
2022/05/15 00:36:12;;;;;;;5.60;2.65;;;;;;;;;;4996038;28;20437;-88
2022/05/15 00:38:38;;;;;;;4.50;2.00;;;12.30;99.90;;;;;;5004283;28;20269;-88
2022/05/15 00:41:05;;;;;;;4.43;2.30;;;12.30;99.90;;;;;;4993469;28;20178;-84
2022/05/15 00:43:39;;;;;;;4.93;2.00;;;12.20;99.90;;;;;;4993197;28;20187;-87
2022/05/15 00:46:08;;;;;;;6.32;2.40;;;12.20;99.90;;;;;;4996955;28;20186;-88
2022/05/15 00:48:34;;;;;;;4.95;2.50;;;12.20;99.90;;;;;;4994910;28;20231;-85
2022/05/15 00:51:03;;;;;;;4.18;1.77;;;12.20;99.90;;;;;;5004377;28;20183;-86
2022/05/15 00:53:30;;;;;;;2.92;1.98;;;14.20;99.90;;;;;;4997040;28;20225;-87
2022/05/15 00:56:01;;;;;;;4.43;2.30;;;11.90;99.90;;;;;;4987563;28;20183;-85
2022/05/15 00:58:35;;;;;;;7.60;2.67;;;12.00;99.90;;;;;;4995370;28;20179;-86
2022/05/15 01:01:02;;;;;;;2.72;1.95;;;12.00;99.90;;;;;;4991393;28;20183;-85
2022/05/15 01:03:28;;;;;;;4.13;2.17;;;13.40;99.90;;;;;;4986690;28;20189;-84
2022/05/15 01:05:55;;;;;;;2.67;1.87;;;11.70;99.90;;;;;;5001863;28;20203;-87
2022/05/15 01:08:22;;;;;;;3.97;2.70;;;11.60;99.90;;;;;;5002255;28;20179;-84
2022/05/15 01:10:53;;;;;;;2.92;2.05;;;11.50;99.90;;;;;;4997815;28;20247;-89
2022/05/15 01:13:21;;;;;;;4.00;2.40;;;11.40;99.90;;;;;;5011866;23;20230;-84
2022/05/15 01:15:47;;;;;;;5.05;2.20;;;11.40;99.90;;;;;;4980326;28;20215;-85
2022/05/15 01:18:20;;;;;;;4.75;1.95;;;11.40;99.90;;;;;;4995195;28;20178;-84
2022/05/15 01:20:46;;;;;;;2.90;2.20;;;11.40;99.90;;;;;;5003766;28;20523;-83
2022/05/15 01:23:11;;;;;;;4.20;2.40;;;11.40;99.90;;;;;;5010478;28;20206;-83
2022/05/15 01:25:37;;;;;;;6.60;2.10;;;11.40;99.90;;;;;;5002732;28;20194;-85
2022/05/15 01:28:11;;;;;;;4.57;2.10;;;11.40;99.90;;;;;;4983330;28;20187;-85
2022/05/15 01:30:41;;;;;;;2.65;2.05;;;11.40;99.90;;;;;;5000640;28;20178;-86
2022/05/15 01:33:06;;;;;;;6.88;2.90;;;11.40;99.90;;;;;;5003905;28;20198;-86
2022/05/15 01:35:32;;;;;;;7.93;2.30;;;11.40;99.90;;;;;;5006969;28;20196;-86
2022/05/15 01:37:57;;;;;;;6.13;2.17;;;11.40;99.90;;;;;;4987557;28;20220;-87
2022/05/15 01:40:23;;;;;;;3.07;2.30;;;11.40;99.90;;;;;;5000856;28;20261;-86
2022/05/15 01:42:48;;;;;;;2.90;2.00;;;11.40;99.90;;;;;;4986938;28;20198;-87
2022/05/15 01:45:16;;;;;;;3.83;2.70;;;11.50;99.90;;;;;;4994614;28;20264;-86
2022/05/15 01:47:42;;;;;;;4.32;2.65;;;11.70;99.90;;;;;;5006020;28;20175;-86
2022/05/15 01:50:09;;;;;;;4.80;3.03;;;11.80;99.90;;;;;;4995959;28;20438;-85
2022/05/15 01:52:35;;;;;;;3.65;2.63;;;11.70;99.90;;;;;;5006109;28;20449;-85
2022/05/15 01:55:01;;;;;;;2.75;2.25;;;11.70;99.90;;;;;;5025692;28;21116;-85
2022/05/15 01:57:26;;;;;;;6.00;2.70;;;11.60;99.90;;;;;;5010725;28;20190;-86
2022/05/15 01:59:52;;;;;;;10.27;3.70;;;11.50;99.90;;;;;;4998031;28;20178;-85
2022/05/15 02:02:17;;;;;;;2.50;2.30;;;11.50;99.90;;;;;;5003292;28;21322;-86
2022/05/15 02:04:44;;;;;;;9.13;2.53;;;11.50;99.90;;;;;;5009355;28;20209;-86
2022/05/15 02:07:09;;;;;;;3.22;2.85;;;11.40;99.90;;;;;;5008313;28;20182;-87
2022/05/15 02:09:35;;;;;;;4.27;2.27;;;11.10;99.90;;;;;;5007828;28;20195;-86
2022/05/15 02:12:00;;;;;;;4.07;3.30;;;10.90;99.90;;;;;;4989560;28;20566;-86
2022/05/15 02:14:26;;;;;;;6.33;3.47;;;10.90;99.90;;;;;;5001327;28;20678;-86
2022/05/15 02:16:52;;;;;;;6.80;3.47;;;10.90;99.90;;;;;;4988094;28;20200;-85
2022/05/15 02:19:18;;;;;;;3.47;2.80;;;11.10;99.90;;;;;;5000858;28;20198;-86
2022/05/15 02:21:44;;;;;;;3.17;2.83;;;11.10;99.90;;;;;;4979759;28;20190;-87
2022/05/15 02:24:10;;;;;;;5.80;2.90;;;11.10;99.90;;;;;;4978275;28;20293;-87
2022/05/15 02:26:35;;;;;;;2.90;2.27;;;11.00;99.90;;;;;;4998120;28;20297;-86
2022/05/15 02:29:01;;;;;;;6.30;3.07;;;11.00;99.90;;;;;;5002673;28;20178;-86
2022/05/15 02:31:26;;;;;;;3.67;2.87;;;10.90;99.90;;;;;;4975718;28;20205;-86
2022/05/15 02:33:52;;;;;;;4.10;2.30;;;10.80;99.90;;;;;;5004018;28;20206;-87
2022/05/15 02:36:17;;;;;;;7.40;2.87;;;10.80;99.90;;;;;;4996522;28;20828;-86
2022/05/15 02:38:43;;;;;;;4.53;2.80;;;10.70;99.90;;;;;;4975119;28;20187;-86
2022/05/15 02:41:08;;;;;;;7.63;2.93;;;10.70;99.90;;;;;;4998388;28;20189;-87
2022/05/15 02:43:34;;;;;;;5.23;2.50;;;10.70;99.90;;;;;;5002793;28;20206;-87
2022/05/15 02:46:00;;;;;;;3.20;2.83;;;10.60;99.90;;;;;;4984744;28;20244;-85
2022/05/15 02:51:10;;;;;;;4.55;3.17;;;10.50;99.90;;;;;;5004776;28;20190;-86
2022/05/15 02:53:38;;;;;;;4.13;3.23;;;10.40;99.90;;;;;;5003797;28;20199;-86
2022/05/15 02:56:11;;;;;;;5.80;2.80;;;10.40;99.90;;;;;;4998967;28;20194;-86
2022/05/15 02:58:37;;;;;;;3.58;2.85;;;10.40;99.90;;;;;;4989259;28;20233;-86
2022/05/15 03:01:04;;;;;;;5.57;3.40;;;10.30;99.90;;;;;;5001306;28;20579;-86
2022/05/15 03:03:29;;;;;;;4.25;2.65;;;10.30;99.90;;;;;;5002657;28;20289;-87
2022/05/15 03:05:55;;;;;;;4.87;2.10;;;10.20;99.90;;;;;;4986991;28;20301;-86
2022/05/15 03:08:21;;;;;;;4.97;2.97;;;10.20;99.90;;;;;;5005568;28;20238;-85
2022/05/15 03:10:47;;;;;;;7.60;3.00;;;10.30;99.90;;;;;;5002878;28;21317;-86
2022/05/15 03:13:12;;;;;;;3.60;2.30;;;10.30;99.90;;;;;;5008437;28;20202;-86
2022/05/15 03:15:38;;;;;;;5.23;2.40;;;10.30;99.90;;;;;;5006089;28;20225;-85
2022/05/15 03:18:04;;;;;;;5.73;2.70;;;10.40;99.90;;;;;;5005832;28;20221;-87
2022/05/15 03:20:30;;;;;;;10.07;3.15;;;10.40;99.90;;;;;;5000573;28;20214;-86
2022/05/15 03:22:57;;;;;;;6.17;3.50;;;10.40;99.90;;;;;;5004290;28;20206;-85
2022/05/15 03:25:24;;;;;;;3.42;2.60;;;10.40;99.90;;;;;;4990517;28;20276;-85
2022/05/15 03:27:50;;;;;;;12.32;2.47;;;10.40;99.90;;;;;;5001072;28;20179;-85
2022/05/15 03:30:16;;;;;;;5.80;2.83;;;10.30;99.90;;;;;;5016571;28;20525;-85
2022/05/15 03:32:42;;;;;;;4.20;2.67;;;10.20;99.90;;;;;;5026582;28;20225;-86
2022/05/15 03:35:09;;;;;;;4.40;2.80;;;10.10;99.90;;;;;;5008594;28;20186;-85
2022/05/15 03:37:34;;;;;;;7.05;3.55;;;10.10;99.90;;;;;;4993949;28;20186;-85
2022/05/15 03:40:00;;;;;;;7.17;3.40;;;10.00;99.90;;;;;;4995103;28;21072;-85
2022/05/15 03:42:26;;;;;;;4.22;2.72;;;10.00;99.90;;;;;;4991562;28;20896;-85
2022/05/15 03:44:53;;;;;;;2.80;2.40;;;10.00;99.90;;;;;;5005472;28;20202;-85
2022/05/15 03:47:19;;;;;;;3.75;2.70;;;10.10;99.90;;;;;;5009703;28;20263;-85
2022/05/15 03:49:45;;;;;;;2.93;2.17;;;10.10;99.90;;;;;;5008911;28;20229;-83
2022/05/15 03:52:11;;;;;;;5.35;2.22;;;10.20;99.90;;;;;;5006260;28;20556;-85
2022/05/15 03:54:37;;;;;;;4.63;2.50;;;10.10;99.90;;;;;;4992010;28;20218;-84
2022/05/15 03:57:04;;;;;;;7.82;3.15;;;10.00;99.90;;;;;;5002780;28;20182;-83
2022/05/15 03:59:33;;;;;;;3.97;2.90;;;10.00;99.90;;;;;;4985960;28;20209;-84
2022/05/15 04:02:00;;;;;;;3.88;3.35;;;10.10;99.90;;;;;;5003802;28;20580;-84
2022/05/15 04:04:26;;;;;;;5.68;3.63;;;10.20;99.90;;;;;;5004521;28;20214;-84
2022/05/15 04:06:52;;;;;;;5.50;3.20;;;10.30;99.90;;;;;;5002004;28;20204;-84
2022/05/15 04:09:17;;;;;;;7.10;2.70;;;10.60;99.90;;;;;;5002762;28;20436;-83
2022/05/15 04:11:43;;;;;;;4.63;2.90;;;10.60;99.90;;;;;;4985042;28;20437;-85
2022/05/15 04:14:09;;;;;;;4.80;2.80;;;10.80;99.90;;;;;;5005136;28;20226;-84
2022/05/15 04:16:35;;;;;;;7.20;3.00;;;11.00;99.90;;;;;;5006309;28;20641;-85
2022/05/15 04:19:01;;;;;;;3.90;2.85;;;11.20;99.90;;;;;;4984816;28;20266;-85
2022/05/15 04:21:27;;;;;;;5.95;3.10;;;11.40;99.90;;;;;;5004355;28;20625;-86
2022/05/15 04:23:53;;;;;;;3.20;2.83;;;11.50;99.90;;;;;;5005634;28;20215;-86
2022/05/15 04:26:19;;;;;;;4.40;2.43;;;11.70;99.90;;;;;;5007475;28;20446;-86
2022/05/15 04:28:45;;;;;;;4.50;2.92;;;11.90;99.90;;;;;;4998257;28;20237;-86
2022/05/15 04:31:10;;;;;;;4.67;2.77;;;14.40;99.90;;;;;;5001949;28;20186;-85
2022/05/15 04:33:36;;;;;;;4.17;2.50;;;13.70;99.90;;;;;;5004595;28;20883;-85
2022/05/15 04:36:02;;;;;;;3.80;2.17;;;15.50;99.90;;;;;;4987362;28;20195;-87
2022/05/15 04:38:28;;;;;;;8.30;2.53;;;17.30;99.90;;;;;;5003695;28;20209;-86
2022/05/15 04:40:54;;;;;;;3.57;3.20;;;18.80;99.90;;;;;;5006920;28;20479;-86
2022/05/15 04:43:20;;;;;;;5.10;2.83;;;19.60;99.90;;;;;;5005923;28;20278;-87
2022/05/15 04:45:45;;;;;;;5.93;2.87;;;20.50;99.90;;;;;;5008189;28;20469;-86
2022/05/15 04:48:11;;;;;;;5.17;3.03;;;21.80;99.90;;;;;;5008183;28;20438;-85
2022/05/15 04:50:37;;;;;;;4.30;2.93;;;23.30;99.90;;;;;;5006653;28;20694;-84
2022/05/15 04:53:07;;;;;;;6.03;3.20;;;22.90;97.90;;;;;;4991757;28;20523;-86
2022/05/15 04:55:33;;;;;;;6.53;2.90;;;23.20;97.40;;;;;;5005812;28;20523;-86
2022/05/15 04:57:58;;;;;;;7.00;3.30;;;24.30;96.70;;;;;;5016791;28;20453;-83
2022/05/15 05:00:24;;;;;;;6.33;3.40;;;24.60;91.30;;;;;;5027725;28;20450;-86
2022/05/15 05:02:50;;;;;;;5.93;3.20;;;25.40;92.30;;;;;;5014225;28;20307;-87
2022/05/15 05:05:16;;;;;;;9.40;3.67;;;27.20;90.70;;;;;;5017240;28;20207;-86
2022/05/15 05:07:42;;;;;;;4.80;3.23;;;29.00;84.30;;;;;;5026633;28;20167;-85
2022/05/15 05:10:09;;;;;;;5.33;4.00;;;30.40;72.80;;;;;;4999932;28;20439;-87
2022/05/15 05:12:36;;;;;;;4.77;4.00;;;30.90;64.20;;;;;;4991975;28;20990;-87
2022/05/15 05:15:02;;;;;;;4.13;3.40;;;32.40;57.50;;;;;;5011991;28;20438;-87
2022/05/15 05:17:28;;;;;;;6.50;3.97;;;32.40;57.90;;;;;;5009626;28;20464;-87
2022/05/15 05:19:53;;;;;;;7.63;4.13;;;32.80;53.80;;;;;;5009348;28;21053;-83
2022/05/15 05:22:19;;;;;;;6.03;3.90;;;32.20;52.20;;;;;;4981617;28;20202;-88
2022/05/15 05:24:44;;;;;;;8.83;4.70;;;32.60;53.50;;;;;;5008355;28;20194;-85
2022/05/15 05:27:10;;;;;;;6.27;5.67;;;;;;;;;;5008976;28;20170;-86
2022/05/15 05:29:36;;;;;;;6.27;5.63;;;34.00;48.30;;;;;;5008538;28;20285;-86
2022/05/15 05:32:02;;;;;;;8.13;5.37;;;31.70;50.70;;;;;;5013969;28;20504;-85
2022/05/15 05:34:28;;;;;;;5.90;5.50;;;;;;;;;;4988143;28;20199;-85
2022/05/15 05:36:54;;;;;;;7.03;5.77;;;;;;;;;;5000181;28;20273;-87
2022/05/15 05:39:20;;;;;;;7.33;6.57;;;32.00;49.40;;;;;;5011230;28;20437;-87
2022/05/15 05:41:46;;;;;;;11.27;6.67;;;34.60;49.00;;;;;;4992006;28;20474;-86
2022/05/15 05:44:12;;;;;;;7.73;7.00;;;34.60;49.40;;;;;;5010019;28;21166;-87
2022/05/15 05:46:37;;;;;;;10.30;7.03;;;34.60;48.80;;;;;;5012550;28;20189;-86
2022/05/15 05:49:03;;;;;;;8.93;7.57;;;35.30;47.90;;;;;;5011996;28;20207;-85
2022/05/15 05:51:28;;;;;;;9.67;8.67;;;35.60;46.80;;;;;;5010777;28;20187;-85
2022/05/15 05:53:54;;;;;;;9.33;8.53;;;36.10;46.10;;;;;;4989511;28;20209;-88
2022/05/15 05:56:19;;;;;;;9.30;8.70;;;35.50;44.40;;;;;;4990533;28;20181;-85
2022/05/15 05:58:45;;;;;;;9.40;8.53;;;33.20;46.40;;;;;;5001149;28;20199;-87
2022/05/15 06:01:11;;;;;;;9.83;9.03;;;33.00;48.30;;;;;;4997829;28;20190;-87
2022/05/15 06:06:21;;;;;;;9.63;8.60;;;32.80;49.80;;;;;;5005831;28;20287;-86
2022/05/15 06:08:46;;;;;;;10.90;8.47;;;34.30;49.60;;;;;;5007807;28;20515;-86
2022/05/15 06:11:12;;;;;;;9.00;8.20;;;33.50;47.40;;;;;;5001446;28;20217;-85
2022/05/15 06:13:39;;;;;;;8.80;8.17;;;32.80;47.20;;;;;;4998747;28;20227;-86
2022/05/15 06:16:06;;;;;;;8.50;7.70;;;31.90;49.20;;;;;;5002180;28;20264;-85
2022/05/15 06:18:32;;;;;;;8.30;7.60;;;32.40;50.70;;;;;;4997314;28;20449;-86
2022/05/15 06:20:57;;;;;;;10.33;9.40;;;32.60;50.10;;;;;;5007655;28;20438;-85
2022/05/15 06:23:23;;;;;;;8.23;7.53;;;32.80;49.60;;;;;;4995662;28;20535;-86
2022/05/15 06:25:49;;;;;;;17.43;9.67;;;33.30;48.40;;;;;;5003358;28;20244;-84
2022/05/15 06:28:14;;;;;;;9.43;8.57;;;33.30;48.00;;;;;;5006510;28;20318;-85
2022/05/15 06:30:40;;;;;;;10.10;8.77;;;34.10;48.30;;;;;;4999192;28;20215;-84
2022/05/15 06:33:06;;;;;;;10.03;9.33;;;34.40;44.20;;;;;;4988620;28;20264;-84
2022/05/15 06:35:32;;;;;;;11.73;9.93;;;34.30;44.60;;;;;;5004075;28;20276;-83
2022/05/15 06:38:02;;;;;;;10.80;9.87;;;35.50;46.40;;;;;;5009862;28;20491;-83
2022/05/15 06:40:28;;;;;;;12.47;9.90;;;;;;;;;;5010899;28;20192;-84
2022/05/15 06:42:54;;;;;;;12.80;11.70;;;37.10;42.90;;;;;;5022297;28;20458;-84
2022/05/15 06:45:20;;;;;;;12.13;11.20;;;;;;;;;;5016268;28;20471;-84
2022/05/15 06:47:46;;;;;;;14.63;13.13;;;;;;;;;;4992012;28;20716;-84
2022/05/15 06:50:12;;;;;;;14.30;13.33;;;38.10;40.20;;;;;;5005170;28;20434;-88
2022/05/15 06:52:38;;;;;;;12.50;11.60;;;38.30;40.40;;;;;;5005017;28;20520;-83
2022/05/15 06:55:09;;;;;;;15.03;13.90;;;37.60;39.60;;;;;;4994981;28;20192;-86
2022/05/15 07:00:07;;;;;;;14.93;13.83;;;37.80;38.90;;;;;;4985628;28;21058;-89
2022/05/15 07:02:33;;;;;;;15.17;13.97;;;;;;;;;;4978478;28;20448;-87
2022/05/15 07:04:59;;;;;;;15.10;13.87;;;;;;;;;;4985023;28;21300;-88
2022/05/15 07:07:25;;;;;;;14.37;13.23;;;;;;;;;;4997531;28;20452;-88
2022/05/15 07:09:51;;;;;;;14.50;13.40;;;;;;;;;;4978841;28;20523;-89
2022/05/15 07:12:17;;;;;;;14.50;13.33;;;;;;;;;;4968336;28;20451;-90
2022/05/15 07:14:44;;;;;;;14.97;13.93;;;;;;;;;;4971707;28;20460;-89
2022/05/15 07:17:10;;;;;;;15.07;13.97;;;37.50;39.20;;;;;;4965252;28;21065;-90
2022/05/15 07:19:36;;;;;;;15.30;14.47;;;;;;;;;;4964009;28;20449;-91
2022/05/15 07:22:02;;;;;;;19.43;14.60;;;;;;;;;;4963331;28;20496;-88
2022/05/15 07:24:28;;;;;;;16.47;15.20;;;;;;;;;;4968379;28;20567;-89
2022/05/15 07:26:55;;;;;;;15.37;14.27;;;;;;;;;;4962430;28;20523;-89
2022/05/15 07:29:24;;;;;;;13.77;12.67;;;;;;;;;;4963698;28;20505;-90
2022/05/15 07:31:54;;;;;;;15.13;14.30;;;40.40;37.40;;;;;;4983009;28;21439;-87
2022/05/15 07:34:21;;;;;;;16.57;15.50;;;;;;;;;;4976241;28;20468;-88
2022/05/15 07:36:50;;;;;;;16.37;14.93;;;;;;;;;;4974471;28;20462;-88
2022/05/15 07:39:16;;;;;;;17.67;16.63;;;;;;;;;;4961936;28;20483;-90
2022/05/15 07:41:42;;;;;;;16.10;15.07;;;;;;;;;;4985169;28;20846;-90
2022/05/15 07:44:08;;;;;;;15.47;14.47;;;;;;;;;;4965837;28;20812;-90
2022/05/15 07:46:34;;;;;;;16.63;15.03;;;;;;;;;;4964755;28;20465;-89
2022/05/15 07:49:00;;;;;;;15.00;14.07;;;;;;;;;;4968161;28;20433;-91
2022/05/15 07:51:29;;;;;;;15.33;14.30;;;38.10;37.80;;;;;;4965886;28;20552;-86
2022/05/15 07:53:54;;;;;;;17.57;16.30;;;;;;;;;;4981308;28;20444;-86
2022/05/15 07:56:20;;;;;;;17.10;16.07;;;;;;;;;;4952988;28;20456;-91
2022/05/15 07:58:52;;;;;;;14.87;13.83;;;;;;;;;;4983276;28;20201;-88
2022/05/15 08:01:18;;;;;;;15.10;14.03;;;;;;;;;;4981483;28;20474;-89
2022/05/15 08:03:45;;;;;;;15.60;14.40;;;;;;;;;;4977778;28;20444;-91
2022/05/15 08:09:02;;;;;;;15.17;13.97;;;39.50;36.40;;;;;;4993565;28;20441;-87
2022/05/15 08:11:28;;;;;;;16.63;15.40;;;39.50;36.90;;;;;;4957523;28;20439;-89
2022/05/15 08:13:55;;;;;;;15.23;14.20;;;39.30;36.50;;;;;;4954021;28;20526;-87
2022/05/15 08:16:22;;;;;;;15.47;14.30;;;;;;;;;;4953051;28;20594;-88
2022/05/15 08:24:17;;;;;;;15.50;14.30;;;;;;;;;;4978293;28;20528;-87
2022/05/15 08:26:45;;;;;;;15.40;14.07;;;;;;;;;;4973793;28;20472;-91
2022/05/15 08:29:11;;;;;;;14.53;13.70;;;;;;;;;;4955160;28;20503;-89
2022/05/15 08:31:39;;;;;;;15.60;14.60;;;;;;;;;;4969739;28;20442;-86
2022/05/15 08:34:05;;;;;;;16.10;14.87;;;;;;;;;;4950109;28;20964;-90
2022/05/15 08:36:31;;;;;;;16.27;15.00;;;;;;;;;;4970221;28;20455;-89
2022/05/15 08:38:57;;;;;;;14.90;14.00;;;;;;;;;;4972379;28;20438;-87
2022/05/15 08:41:23;;;;;;;16.30;15.17;;;;;;;;;;4960209;28;20449;-85
2022/05/15 08:43:54;;;;;;;15.10;14.03;;;39.60;36.00;;;;;;4987778;28;20441;-88
2022/05/15 08:46:43;;;;;;;15.07;14.17;;;39.80;35.60;;;;;;4994006;28;20249;-86
2022/05/15 08:49:17;;;;;;;14.70;13.93;;;39.50;36.40;;;;;;4980726;28;20450;-86
2022/05/15 08:52:00;;;;;;;15.47;14.57;;;39.30;35.40;;;;;;4943275;28;20441;-86
2022/05/15 08:54:26;;;;;;;15.23;14.23;;;;;;;;;;4962296;28;20453;-88
2022/05/15 08:56:54;;;;;;;15.53;14.53;;;37.50;35.40;;;;;;4938813;28;21196;-89
2022/05/15 08:59:43;;;;;;;15.00;14.00;;;36.90;37.70;;;;;;4958990;28;22343;-86
2022/05/15 09:02:11;;;;;;;14.80;13.80;;;36.80;38.40;;;;;;4974127;28;20908;-89
2022/05/15 09:04:38;;;;;;;13.83;12.93;;;;;;;;;;4969377;28;20616;-91
2022/05/15 09:07:25;;;;;;;14.73;13.60;;;36.80;38.20;;;;;;4958064;28;20452;-90
2022/05/15 09:10:14;;;;;;;14.17;13.07;;;36.80;38.60;;;;;;4978474;28;20440;-89
2022/05/15 09:12:43;;;;;;;14.23;13.20;;;36.70;39.70;;;;;;4972693;28;20803;-87
2022/05/15 09:15:30;;;;;;;13.87;12.77;;;34.60;39.30;;;;;;4968766;28;20450;-91
2022/05/15 09:18:05;;;;;;;13.57;12.53;;;34.70;40.40;;;;;;4962389;28;20472;-91
2022/05/15 09:20:31;;;;;;;12.77;12.00;;;;;;;;;;4966999;28;20449;-88
2022/05/15 09:23:18;;;;;;;12.73;11.90;;;35.00;42.80;;;;;;4986466;28;20474;-89
2022/05/15 09:26:13;;;;;;;13.20;12.40;;;36.10;40.60;;;;;;4967941;28;20480;-88
2022/05/15 09:28:52;;;;;;;12.70;11.90;;;36.00;40.80;;;;;;4952730;28;20456;-88
2022/05/15 09:31:40;;;;;;;13.60;12.70;;;35.30;39.20;;;;;;4969858;28;20968;-91
2022/05/15 09:34:12;;;;;;;12.97;11.87;;;35.40;39.90;;;;;;4973939;28;20446;-87
2022/05/15 09:36:37;;;;;;;12.50;11.70;;;;;;;;;;4982660;28;20462;-85
2022/05/15 09:39:23;;;;;;;12.33;11.60;;;34.90;41.40;;;;;;4951392;28;20533;-90
2022/05/15 09:45:00;;;;;;;11.67;10.93;;;35.10;39.00;;;;;;4973368;28;20492;-90
2022/05/15 09:47:36;;;;;;;12.63;11.63;;;34.50;39.30;;;;;;4963430;28;20472;-89
2022/05/15 09:50:02;;;;;;;12.50;11.43;;;;;;;;;;4979157;28;20446;-90
2022/05/15 09:52:42;;;;;;;12.00;11.10;;;33.90;42.80;;;;;;4967056;28;21571;-86
2022/05/15 09:55:27;;;;;;;10.93;10.33;;;33.90;43.90;;;;;;4944351;28;20453;-88
2022/05/15 09:57:59;;;;;;;13.00;12.30;;;34.90;38.90;;;;;;4967736;28;20501;-88
2022/05/15 10:00:27;;;;;;;11.90;11.10;;;34.10;40.00;;;;;;4956842;28;20458;-86
2022/05/15 10:02:55;;;;;;;11.73;10.90;;;33.90;39.80;;;;;;4952647;28;22065;-90
2022/05/15 10:05:27;;;;;;;12.13;11.33;;;33.40;41.00;;;;;;4973621;28;20481;-85
2022/05/15 10:08:08;;;;;;;12.30;11.10;;;33.40;41.60;;;;;;4966196;28;21206;-86
2022/05/15 10:10:38;;;;;;;12.17;11.27;;;34.50;37.60;;;;;;4972656;28;20983;-90
2022/05/15 10:13:44;;;;;;;11.53;10.93;;;34.50;38.20;;;;;;4954333;28;20445;-87
2022/05/15 10:16:47;;;;;;;11.10;10.23;;;33.80;39.80;;;;;;4958927;28;20447;-87
2022/05/15 10:19:28;;;;;;;12.10;11.40;;;34.10;40.60;;;;;;4930396;28;20457;-85
2022/05/15 10:22:15;;;;;;;12.07;11.20;;;34.10;41.10;;;;;;4982547;28;20448;-84
2022/05/15 10:24:44;;;;;;;11.40;10.60;;;34.60;40.50;;;;;;4948408;28;20516;-87
2022/05/15 10:27:10;;;;;;;12.10;11.00;;;;;;;;;;4960093;28;20455;-85
2022/05/15 10:30:01;;;;;;;10.50;9.90;;;33.50;41.00;;;;;;4959392;28;21103;-86
2022/05/15 10:32:35;;;;;;;9.73;9.03;;;32.10;41.50;;;;;;4945300;28;21038;-86
2022/05/15 10:35:01;;;;;;;8.60;8.10;;;;;;;;;;4956016;28;20454;-88
2022/05/15 10:37:54;;;;;;;8.73;8.13;;;29.90;44.60;;;;;;4975427;28;21088;-87
2022/05/15 10:40:32;;;;;;;6.97;6.47;;;29.10;46.00;;;;;;4988674;28;20439;-85
2022/05/15 10:43:27;;;;;;;8.47;7.87;;;27.80;49.20;;;;;;4981513;28;20875;-87
2022/05/15 10:46:14;;;;;;;7.97;7.20;;;27.10;50.80;;;;;;4995823;28;20466;-85
2022/05/15 10:49:07;;;;;;;6.67;6.00;;;26.80;51.00;;;;;;4995687;28;20458;-87
2022/05/15 10:51:47;;;;;;;8.37;6.40;;;26.60;53.00;;;;;;4971285;28;20465;-87
2022/05/15 10:57:35;;;;;;;7.23;5.07;;;26.60;50.70;;;;;;4975810;28;20472;-84
2022/05/15 11:00:10;;;;;;;8.30;5.70;;;26.60;50.30;;;;;;4968572;28;20460;-90
2022/05/15 11:03:03;;;;;;;5.67;4.30;;;26.50;49.00;;;;;;4962853;28;20436;-87
2022/05/15 11:05:30;;;;;;;5.50;5.00;;;26.60;49.40;;;;;;4963264;28;20487;-86
2022/05/15 11:08:19;;;;;;;4.10;3.83;;;26.80;49.90;;;;;;4981643;28;20485;-86
2022/05/15 11:10:53;;;;;;;6.00;5.23;;;26.80;49.10;;;;;;4985896;28;20453;-86
2022/05/15 11:13:54;;;;;;;7.10;5.33;;;26.90;48.00;;;;;;4974324;28;20442;-88
2022/05/15 11:16:39;;;;;;;4.63;4.43;;;26.90;46.80;;;;;;4974287;28;20525;-87
2022/05/15 11:19:20;;;;;;;4.80;4.30;;;26.80;46.30;;;;;;4965525;28;20475;-89
2022/05/15 11:22:10;;;;;;;6.13;4.97;;;26.80;47.30;;;;;;4960074;28;20451;-87
2022/05/15 11:24:51;;;;;;;5.43;4.60;;;26.80;46.80;;;;;;4973636;28;20517;-86
2022/05/15 11:27:28;;;;;;;6.70;5.37;;;26.80;47.50;;;;;;4977926;28;20997;-86
2022/05/15 11:29:58;;;;;;;7.50;4.90;;;26.80;46.50;;;;;;4958449;28;20463;-85
2022/05/15 11:32:44;;;;;;;4.60;4.20;;;26.80;46.00;;;;;;4947989;28;20445;-87
2022/05/15 11:35:19;;;;;;;4.73;4.33;;;26.80;45.90;;;;;;4960032;28;20474;-86
2022/05/15 11:37:57;;;;;;;11.00;5.30;;;26.80;45.60;;;;;;4952320;28;20465;-86
2022/05/15 11:40:31;;;;;;;6.93;6.33;;;26.80;47.50;;;;;;4971210;28;20446;-83
2022/05/15 11:42:57;;;;;;;6.60;6.10;;;26.80;46.80;;;;;;4958647;28;20458;-84
2022/05/15 11:45:30;;;;;;;7.03;6.40;;;26.80;47.40;;;;;;4973432;28;20464;-89
2022/05/15 11:48:01;;;;;;;6.30;5.80;;;27.00;45.10;;;;;;4957556;28;20522;-88
2022/05/15 11:50:37;;;;;;;5.57;5.10;;;27.10;45.40;;;;;;4961052;28;20472;-86
2022/05/15 11:53:10;;;;;;;7.00;5.90;;;28.80;46.60;;;;;;4964612;28;20465;-86
2022/05/15 11:55:36;;;;;;;6.10;5.20;;;;;;;;;;4990811;28;20429;-85
2022/05/15 11:58:26;;;;;;;9.03;6.40;;;27.30;45.90;;;;;;4968576;28;20564;-84
2022/05/15 12:01:07;;;;;;;6.27;5.87;;;27.30;46.00;;;;;;4978559;28;20445;-89
2022/05/15 12:03:39;;;;;;;6.73;6.33;;;27.30;45.60;;;;;;4949381;28;20457;-86
2022/05/15 12:06:09;;;;;;;10.20;5.73;;;27.30;47.00;;;;;;4972789;28;20552;-85
2022/05/15 12:08:40;;;;;;;4.20;3.90;;;27.50;46.20;;;;;;4954386;28;20449;-88
2022/05/15 12:11:17;;;;;;;9.97;6.47;;;27.50;46.90;;;;;;4955685;28;20443;-89
2022/05/15 12:13:43;;;;;;;9.03;5.90;;;27.60;47.00;;;;;;4948630;28;20441;-90
2022/05/15 12:16:52;;;;;;;5.70;5.20;;;27.50;45.60;;;;;;4965892;28;20465;-89
2022/05/15 12:19:26;;;;;;;5.93;5.47;;;27.30;46.00;;;;;;4900707;29;20201;-87
2022/05/15 12:21:55;;;;;;;5.30;4.90;;;28.10;46.90;;;;;;4942175;28;20511;-89
2022/05/15 12:24:29;;;;;;;5.00;4.60;;;27.60;47.20;;;;;;4941948;28;20443;-87
2022/05/15 12:27:11;;;;;;;16.13;5.27;;;27.70;46.10;;;;;;4963762;28;20619;-87
2022/05/15 12:30:12;;;;;;;5.97;5.67;;;27.70;45.90;;;;;;4945613;28;20970;-90
2022/05/15 12:32:55;;;;;;;5.37;4.77;;;27.60;45.00;;;;;;4970966;28;20454;-86
2022/05/15 12:35:25;;;;;;;5.90;5.50;;;27.60;45.80;;;;;;4968801;28;20438;-89
2022/05/15 12:38:01;;;;;;;5.70;5.20;;;27.70;47.30;;;;;;4969737;28;20502;-86
2022/05/15 12:40:31;;;;;;;6.20;5.70;;;29.20;47.60;;;;;;4953128;28;20964;-89
2022/05/15 12:42:57;;;;;;;6.67;6.00;;;28.00;46.40;;;;;;4942806;28;20561;-88
2022/05/15 12:45:23;;;;;;;6.30;5.00;;;;;;;;;;4958565;28;20563;-88
2022/05/15 12:48:07;;;;;;;6.93;5.23;;;27.80;46.40;;;;;;4971816;28;20466;-86
2022/05/15 12:50:34;;;;;;;6.30;5.57;;;27.80;45.20;;;;;;4968766;28;20443;-86
2022/05/15 12:53:04;;;;;;;5.67;5.37;;;27.60;44.50;;;;;;4960918;28;20439;-86
2022/05/15 12:55:35;;;;;;;9.10;5.77;;;27.60;45.10;;;;;;4955674;28;20479;-86
2022/05/15 12:58:05;;;;;;;6.30;5.70;;;27.70;46.90;;;;;;4950181;28;20475;-87
2022/05/15 13:00:49;;;;;;;8.30;5.20;;;28.00;46.80;;;;;;4946287;28;20443;-86
2022/05/15 13:03:20;;;;;;;5.40;5.00;;;27.80;45.80;;;;;;4964652;28;20446;-85
2022/05/15 13:05:51;;;;;;;11.57;5.20;;;27.90;45.30;;;;;;4951691;28;20519;-87
2022/05/15 13:08:17;;;;;;;6.63;5.93;;;;;;;;;;4969892;28;20431;-86
2022/05/15 13:11:03;;;;;;;5.77;5.27;;;28.00;43.60;;;;;;4938221;28;20809;-85
2022/05/15 13:13:34;;;;;;;6.30;5.90;;;28.00;45.10;;;;;;4948039;28;21254;-86
2022/05/15 13:16:00;;;;;;;5.57;5.10;;;28.10;44.20;;;;;;4975858;28;20454;-87
2022/05/15 13:18:33;;;;;;;8.00;4.93;;;28.00;43.80;;;;;;4959467;28;20486;-88
2022/05/15 13:21:03;;;;;;;5.97;5.40;;;28.10;44.90;;;;;;4964369;28;20493;-88
2022/05/15 13:23:33;;;;;;;6.07;5.73;;;28.00;44.30;;;;;;4950274;28;20816;-85
2022/05/15 13:26:00;;;;;;;6.83;6.40;;;28.10;44.40;;;;;;4969018;28;20746;-88
2022/05/15 13:28:26;;;;;;;6.40;5.80;;;;;;;;;;4959021;28;20458;-89
2022/05/15 13:30:53;;;;;;;6.50;5.27;;;;;;;;;;4954224;28;20441;-88
2022/05/15 13:33:23;;;;;;;6.23;5.70;;;28.10;44.20;;;;;;4947067;28;20837;-88
2022/05/15 13:35:51;;;;;;;6.53;5.93;;;28.20;44.80;;;;;;4983261;23;20501;-85